Time;durP1;ratioP1;P1;durP2;ratioP2;P2;SDS_P1;SDS_P2;PMS_P1;PMS_P2;Temp;Humidity;BMP_temperature;BMP_pressure;BME280_temperature;BME280_humidity;BME280_pressure;Samples;Min_cycle;Max_cycle;Signal;HPM_P1;HPM_P2
2022/08/09 00:00:56;;;;;;;8.70;6.35;;;19.80;83.60;;;;;;5061083;28;20044;-70
2022/08/09 00:03:24;;;;;;;9.82;6.60;;;19.80;83.90;;;;;;5084786;28;20071;-69
2022/08/09 00:06:12;;;;;;;6.57;6.07;;;19.80;84.40;;;;;;5060986;28;20119;-70
2022/08/09 00:08:49;;;;;;;7.88;6.50;;;19.80;84.50;;;;;;5082093;28;20069;-71
2022/08/09 00:11:20;;;;;;;7.00;6.30;;;19.70;85.00;;;;;;5082976;28;20040;-70
2022/08/09 00:13:54;;;;;;;7.40;6.70;;;19.70;85.50;;;;;;5083976;28;20639;-70
2022/08/09 00:16:22;;;;;;;6.78;6.18;;;19.70;86.30;;;;;;5085497;28;20036;-70
2022/08/09 00:19:04;;;;;;;6.65;6.10;;;19.60;87.00;;;;;;5083542;28;20056;-71
2022/08/09 00:21:39;;;;;;;7.15;6.45;;;19.50;88.00;;;;;;5060684;28;20470;-71
2022/08/09 00:24:24;;;;;;;6.90;6.30;;;19.50;88.80;;;;;;5074655;28;20044;-69
2022/08/09 00:26:54;;;;;;;7.43;6.53;;;19.50;89.70;;;;;;5079222;28;20460;-71
2022/08/09 00:29:24;;;;;;;7.25;6.50;;;19.40;90.10;;;;;;5078156;28;20515;-70
2022/08/09 00:32:11;;;;;;;7.15;6.55;;;19.30;90.30;;;;;;5060284;28;20040;-70
2022/08/09 00:34:51;;;;;;;7.53;6.70;;;19.20;90.90;;;;;;5075459;28;20067;-70
2022/08/09 00:37:19;;;;;;;7.72;6.65;;;19.20;91.30;;;;;;5076912;28;20039;-69
2022/08/09 00:39:47;;;;;;;7.25;6.40;;;19.10;91.60;;;;;;5073431;28;20056;-70
2022/08/09 00:42:34;;;;;;;6.93;6.32;;;19.00;91.90;;;;;;5063325;28;20094;-70
2022/08/09 00:45:22;;;;;;;8.25;6.60;;;19.00;92.40;;;;;;5077472;28;20497;-71
2022/08/09 00:47:51;;;;;;;7.00;6.40;;;18.90;92.90;;;;;;5050161;28;20404;-70
2022/08/09 00:50:22;;;;;;;9.90;6.63;;;18.90;93.20;;;;;;5072167;28;20055;-71
2022/08/09 00:52:52;;;;;;;7.13;6.40;;;18.90;93.70;;;;;;5072475;28;20581;-70
2022/08/09 00:55:20;;;;;;;7.63;6.93;;;18.80;94.00;;;;;;5066001;28;20041;-71
2022/08/09 00:58:08;;;;;;;7.82;7.13;;;18.80;94.40;;;;;;5067779;28;20086;-70
2022/08/09 01:00:43;;;;;;;7.95;7.07;;;18.70;94.80;;;;;;5060731;28;20044;-70
2022/08/09 01:03:15;;;;;;;7.72;6.97;;;18.70;95.20;;;;;;5058589;28;20071;-70
2022/08/09 01:05:50;;;;;;;7.68;6.97;;;18.60;95.70;;;;;;5068164;28;20067;-70
2022/08/09 01:08:27;;;;;;;7.85;7.15;;;18.60;96.10;;;;;;5056373;28;20051;-70
2022/08/09 01:10:57;;;;;;;8.00;7.20;;;18.50;96.50;;;;;;5076877;28;20510;-70
2022/08/09 01:13:39;;;;;;;7.72;6.93;;;18.50;96.90;;;;;;5058388;28;20415;-70
2022/08/09 01:16:39;;;;;;;7.55;6.85;;;18.50;97.30;;;;;;5054186;28;20048;-70
2022/08/09 01:19:31;;;;;;;7.63;7.03;;;18.50;97.60;;;;;;5053397;28;20045;-70
2022/08/09 01:22:37;;;;;;;7.60;6.82;;;18.40;97.90;;;;;;5065802;28;20138;-71
2022/08/09 01:25:31;;;;;;;7.15;6.55;;;18.40;98.50;;;;;;5063036;28;20745;-71
2022/08/09 01:28:09;;;;;;;7.53;6.82;;;18.40;98.80;;;;;;5066260;28;20055;-70
2022/08/09 01:30:39;;;;;;;7.47;6.78;;;18.30;99.00;;;;;;5069117;28;20398;-70
2022/08/09 01:33:24;;;;;;;9.80;7.15;;;18.30;99.30;;;;;;5067321;28;20408;-70
2022/08/09 01:36:10;;;;;;;7.65;7.05;;;18.30;99.60;;;;;;5067522;28;20703;-70
2022/08/09 01:38:46;;;;;;;8.18;7.38;;;18.20;99.90;;;;;;5068327;28;20517;-70
2022/08/09 01:41:17;;;;;;;9.90;7.78;;;18.20;99.90;;;;;;5054693;28;20055;-70
2022/08/09 01:43:55;;;;;;;9.27;7.57;;;18.20;99.90;;;;;;5079756;28;20044;-69
2022/08/09 01:46:26;;;;;;;8.20;7.50;;;18.10;99.90;;;;;;5079089;28;20502;-71
2022/08/09 01:48:57;;;;;;;10.32;7.07;;;18.10;99.90;;;;;;5076241;28;20140;-71
2022/08/09 01:51:38;;;;;;;8.23;7.43;;;18.10;99.90;;;;;;5084282;28;20525;-70
2022/08/09 01:54:13;;;;;;;7.93;7.22;;;18.00;99.90;;;;;;5050186;28;20498;-70
2022/08/09 01:56:44;;;;;;;8.10;7.38;;;18.00;99.90;;;;;;5063947;28;20045;-71
2022/08/09 01:59:20;;;;;;;7.65;6.90;;;18.00;99.90;;;;;;5037099;28;20515;-71
2022/08/09 02:01:52;;;;;;;7.35;6.75;;;17.90;99.90;;;;;;5067680;28;20056;-70
2022/08/09 02:04:30;;;;;;;7.82;7.22;;;17.90;99.90;;;;;;5036803;28;20036;-71
2022/08/09 02:07:07;;;;;;;9.48;7.07;;;17.90;99.90;;;;;;5049923;28;20550;-70
2022/08/09 02:10:05;;;;;;;8.40;7.22;;;17.90;99.90;;;;;;5049252;28;20033;-70
2022/08/09 02:12:35;;;;;;;7.93;7.13;;;17.80;99.90;;;;;;5048894;28;20051;-70
2022/08/09 02:15:08;;;;;;;7.30;6.70;;;17.80;99.90;;;;;;5068944;28;20079;-69
2022/08/09 02:17:48;;;;;;;7.43;6.80;;;17.80;99.90;;;;;;5064062;28;20111;-71
2022/08/09 02:20:42;;;;;;;8.07;6.80;;;17.80;99.90;;;;;;5073345;28;20595;-70
2022/08/09 02:23:28;;;;;;;8.88;6.70;;;17.80;99.90;;;;;;5058594;28;20127;-70
2022/08/09 02:26:08;;;;;;;7.30;6.60;;;17.80;99.90;;;;;;5075757;28;20052;-70
2022/08/09 02:28:59;;;;;;;7.55;6.85;;;17.80;99.90;;;;;;5049865;28;20060;-69
2022/08/09 02:31:31;;;;;;;8.45;6.65;;;17.70;99.90;;;;;;5083683;28;20414;-70
2022/08/09 02:34:10;;;;;;;7.40;6.53;;;17.70;99.90;;;;;;5066331;28;20033;-70
2022/08/09 02:36:43;;;;;;;7.35;6.65;;;17.70;99.90;;;;;;5066414;28;20454;-70
2022/08/09 02:39:20;;;;;;;7.93;7.22;;;17.60;99.90;;;;;;5066487;28;20056;-70
2022/08/09 02:42:07;;;;;;;;;;;17.60;99.90;;;;;;5064813;28;20068;-71
2022/08/09 02:44:39;;;;;;;7.55;6.90;;;17.60;99.90;;;;;;5055403;28;19931;-70
2022/08/09 02:47:10;;;;;;;7.90;7.15;;;17.60;99.90;;;;;;5075937;28;20473;-70
2022/08/09 02:49:44;;;;;;;7.75;7.05;;;17.50;99.90;;;;;;5078618;28;20040;-70
2022/08/09 02:52:36;;;;;;;7.20;6.50;;;17.50;99.90;;;;;;5059452;28;20043;-72
2022/08/09 02:55:07;;;;;;;8.00;7.20;;;17.50;99.90;;;;;;5082086;28;20087;-69
2022/08/09 02:57:48;;;;;;;7.65;7.00;;;17.50;99.90;;;;;;5071099;28;20051;-69
2022/08/09 03:00:38;;;;;;;7.43;6.82;;;17.50;99.90;;;;;;5066681;28;20044;-69
2022/08/09 03:03:26;;;;;;;7.82;7.00;;;17.50;99.90;;;;;;5059221;28;20094;-69
2022/08/09 03:06:15;;;;;;;7.80;7.05;;;17.50;99.90;;;;;;5069928;28;20512;-70
2022/08/09 03:08:44;;;;;;;7.82;7.03;;;17.50;99.90;;;;;;5079335;28;20510;-70
2022/08/09 03:11:15;;;;;;;7.13;6.53;;;17.40;99.90;;;;;;5080771;28;20123;-71
2022/08/09 03:14:04;;;;;;;7.50;6.88;;;17.50;99.90;;;;;;5066788;28;20043;-71
2022/08/09 03:16:33;;;;;;;7.95;7.15;;;17.50;99.90;;;;;;5054728;28;20059;-70
2022/08/09 03:19:09;;;;;;;7.72;7.03;;;17.50;99.90;;;;;;5069563;28;20056;-70
2022/08/09 03:21:58;;;;;;;7.45;6.82;;;17.40;99.90;;;;;;5060287;28;20435;-71
2022/08/09 03:24:29;;;;;;;7.40;6.70;;;17.40;99.90;;;;;;5078386;28;20053;-70
2022/08/09 03:27:17;;;;;;;7.88;7.18;;;17.40;99.90;;;;;;5064125;28;20036;-70
2022/08/09 03:29:50;;;;;;;7.87;6.63;;;17.40;99.90;;;;;;5081392;28;20165;-70
2022/08/09 03:32:32;;;;;;;7.18;6.50;;;17.40;99.90;;;;;;5079182;28;20041;-70
2022/08/09 03:35:04;;;;;;;6.90;6.25;;;17.40;99.90;;;;;;5069577;28;20122;-70
2022/08/09 03:37:51;;;;;;;7.47;6.88;;;17.40;99.90;;;;;;5077646;28;20048;-70
2022/08/09 03:40:24;;;;;;;8.55;7.20;;;17.40;99.90;;;;;;5087782;28;20043;-71
2022/08/09 03:42:57;;;;;;;8.07;7.28;;;17.40;99.90;;;;;;5082773;28;20052;-70
2022/08/09 03:45:25;;;;;;;8.15;7.35;;;17.40;99.90;;;;;;5065453;28;20093;-70
2022/08/09 03:48:12;;;;;;;7.97;7.00;;;17.40;99.90;;;;;;5079713;28;20559;-71
2022/08/09 03:50:57;;;;;;;7.97;7.20;;;17.40;99.90;;;;;;5051201;28;20078;-70
2022/08/09 03:53:27;;;;;;;8.18;7.38;;;17.30;99.90;;;;;;5078108;28;20048;-71
2022/08/09 03:56:04;;;;;;;8.30;7.10;;;17.30;99.90;;;;;;5083622;28;20132;-70
2022/08/09 03:58:32;;;;;;;8.38;7.57;;;17.30;99.90;;;;;;5048199;28;20037;-72
2022/08/09 04:01:00;;;;;;;7.63;7.00;;;17.30;99.90;;;;;;5078432;28;20047;-69
2022/08/09 04:03:29;;;;;;;7.60;6.90;;;17.40;99.90;;;;;;5082438;28;20044;-69
2022/08/09 04:06:12;;;;;;;8.27;7.05;;;17.40;99.90;;;;;;5056410;28;20403;-70
2022/08/09 04:08:40;;;;;;;7.75;6.95;;;17.40;99.90;;;;;;5067897;28;20048;-70
2022/08/09 04:11:12;;;;;;;7.50;6.80;;;17.40;99.90;;;;;;5066390;28;20549;-70
2022/08/09 04:13:40;;;;;;;7.40;6.55;;;17.40;99.90;;;;;;5066786;28;20041;-69
2022/08/09 04:16:27;;;;;;;7.65;7.00;;;17.50;99.90;;;;;;5043053;28;20037;-69
2022/08/09 04:18:54;;;;;;;7.78;7.18;;;17.50;99.90;;;;;;5062858;28;20062;-70
2022/08/09 04:21:23;;;;;;;7.28;6.68;;;17.50;99.90;;;;;;5037003;28;20624;-69
2022/08/09 04:23:51;;;;;;;8.32;6.95;;;17.50;99.90;;;;;;5059524;28;20128;-69
2022/08/09 04:26:24;;;;;;;8.35;7.15;;;17.50;99.90;;;;;;5072187;28;20040;-69
2022/08/09 04:29:04;;;;;;;8.30;7.50;;;17.50;99.90;;;;;;5060275;28;20096;-70
2022/08/09 04:31:40;;;;;;;8.38;6.95;;;17.60;99.90;;;;;;5063446;28;21973;-70
2022/08/09 04:34:13;;;;;;;7.47;6.72;;;17.60;99.90;;;;;;5050356;28;20487;-70
2022/08/09 04:36:57;;;;;;;7.25;6.65;;;17.60;99.90;;;;;;5070265;28;20040;-70
2022/08/09 04:39:25;;;;;;;7.32;6.60;;;17.70;99.90;;;;;;5070926;28;20036;-70
2022/08/09 04:41:57;;;;;;;;;;;17.70;99.90;;;;;;5073117;28;20044;-70
2022/08/09 04:44:27;;;;;;;7.18;6.63;;;17.80;99.90;;;;;;5070529;28;19929;-70
2022/08/09 04:46:54;;;;;;;7.70;7.00;;;17.80;99.90;;;;;;5071094;28;20049;-71
2022/08/09 04:49:32;;;;;;;8.63;7.82;;;17.80;99.90;;;;;;5064188;28;20094;-69
2022/08/09 04:52:27;;;;;;;8.50;7.50;;;17.80;99.90;;;;;;5084500;28;20151;-71
2022/08/09 04:54:59;;;;;;;11.00;9.73;;;17.90;99.90;;;;;;5064413;28;20119;-71
2022/08/09 04:57:29;;;;;;;8.80;7.93;;;17.90;99.90;;;;;;5079794;28;20040;-70
2022/08/09 05:00:16;;;;;;;7.90;7.10;;;18.00;99.90;;;;;;5073900;28;20150;-70
2022/08/09 05:02:44;;;;;;;7.60;6.75;;;18.10;99.90;;;;;;5073880;28;20404;-70
2022/08/09 05:05:19;;;;;;;8.05;7.18;;;18.10;99.90;;;;;;5052403;28;20044;-70
2022/08/09 05:07:58;;;;;;;7.85;7.18;;;18.20;99.90;;;;;;5052224;28;20052;-70
2022/08/09 05:10:26;;;;;;;8.13;7.32;;;18.30;99.90;;;;;;5062856;28;20060;-71
2022/08/09 05:12:53;;;;;;;7.78;7.07;;;18.30;99.90;;;;;;5049145;28;20037;-69
2022/08/09 05:15:23;;;;;;;7.82;7.13;;;18.40;99.90;;;;;;5052795;28;20541;-70
2022/08/09 05:18:10;;;;;;;7.40;6.70;;;18.40;99.90;;;;;;5054625;28;20418;-70
2022/08/09 05:20:59;;;;;;;7.63;6.93;;;18.50;99.90;;;;;;5063622;28;20382;-70
2022/08/09 05:23:26;;;;;;;11.80;7.72;;;18.60;99.90;;;;;;5050315;28;20130;-67
2022/08/09 05:26:13;;;;;;;17.35;8.85;;;18.70;99.90;;;;;;5052066;28;20036;-70
2022/08/09 05:28:52;;;;;;;11.32;7.70;;;18.80;99.90;;;;;;5059790;28;20052;-68
2022/08/09 05:31:19;;;;;;;8.55;7.07;;;18.90;99.90;;;;;;5085020;28;20083;-68
2022/08/09 05:34:06;;;;;;;7.90;7.30;;;18.90;99.90;;;;;;5079492;28;20423;-68
2022/08/09 05:36:43;;;;;;;8.00;7.30;;;18.90;99.90;;;;;;5068213;28;20463;-68
2022/08/09 05:39:14;;;;;;;8.35;7.50;;;19.00;99.90;;;;;;5066790;28;20121;-70
2022/08/09 05:41:55;;;;;;;;;;;19.10;99.90;;;;;;5053468;28;20056;-68
2022/08/09 05:44:31;;;;;;;8.18;7.47;;;19.10;99.90;;;;;;5052350;28;20413;-69
2022/08/09 05:47:02;;;;;;;7.93;7.13;;;19.30;99.90;;;;;;5063017;28;20564;-68
2022/08/09 05:49:32;;;;;;;8.50;7.70;;;19.30;99.90;;;;;;5056689;28;20060;-68
2022/08/09 05:52:21;;;;;;;7.93;7.22;;;19.30;99.90;;;;;;5050505;28;20047;-69
2022/08/09 05:54:58;;;;;;;9.40;7.80;;;19.40;99.90;;;;;;5062726;28;20098;-67
2022/08/09 05:57:36;;;;;;;7.50;7.00;;;19.50;99.90;;;;;;5068726;28;20128;-70
2022/08/09 06:00:32;;;;;;;8.65;7.75;;;19.40;99.90;;;;;;5070427;28;20067;-68
2022/08/09 06:03:02;;;;;;;8.27;7.57;;;19.50;99.90;;;;;;5083511;28;20076;-68
2022/08/09 06:05:36;;;;;;;8.68;7.40;;;19.60;99.90;;;;;;5059917;28;20154;-68
2022/08/09 06:08:24;;;;;;;7.93;7.25;;;19.70;99.90;;;;;;5070594;28;20048;-68
2022/08/09 06:10:53;;;;;;;9.90;7.32;;;19.70;99.90;;;;;;5060394;28;20135;-69
2022/08/09 06:13:21;;;;;;;7.68;6.90;;;19.80;99.90;;;;;;5077901;28;20050;-69
2022/08/09 06:15:49;;;;;;;7.88;7.07;;;19.90;99.90;;;;;;5078042;28;20578;-66
2022/08/09 06:18:17;;;;;;;7.15;6.53;;;20.00;99.90;;;;;;5058035;28;20146;-64
2022/08/09 06:20:50;;;;;;;7.70;7.10;;;20.20;99.90;;;;;;5054512;28;20539;-65
2022/08/09 06:23:25;;;;;;;9.02;7.90;;;20.30;99.90;;;;;;5055089;28;20067;-65
2022/08/09 06:26:14;;;;;;;8.07;7.30;;;20.40;99.90;;;;;;5049875;28;20037;-64
2022/08/09 06:28:52;;;;;;;7.75;7.05;;;20.60;99.90;;;;;;5071673;28;20056;-66
2022/08/09 06:31:28;;;;;;;7.90;7.20;;;20.70;99.90;;;;;;5078748;28;20049;-66
2022/08/09 06:34:06;;;;;;;8.35;6.93;;;20.80;99.90;;;;;;5070880;28;20039;-64
2022/08/09 06:36:33;;;;;;;7.00;6.50;;;21.00;99.90;;;;;;5063084;28;20044;-65
2022/08/09 06:39:01;;;;;;;7.45;6.75;;;21.10;99.90;;;;;;5062105;28;20113;-69
2022/08/09 06:41:35;;;;;;;7.68;6.85;;;21.20;99.90;;;;;;5061317;28;20120;-65
2022/08/09 06:44:24;;;;;;;7.38;6.63;;;21.30;99.90;;;;;;5070339;28;20070;-65
2022/08/09 06:46:52;;;;;;;7.47;6.97;;;21.40;99.90;;;;;;5073494;28;20465;-65
2022/08/09 06:49:22;;;;;;;8.75;6.50;;;21.50;99.90;;;;;;5069132;28;20044;-67
2022/08/09 06:52:10;;;;;;;7.80;7.10;;;21.70;99.90;;;;;;5072431;28;20044;-65
2022/08/09 06:54:41;;;;;;;7.63;6.93;;;21.70;99.90;;;;;;5068992;28;20505;-65
2022/08/09 06:57:10;;;;;;;6.95;6.35;;;21.80;99.90;;;;;;5073785;28;20478;-66
2022/08/09 06:59:40;;;;;;;8.25;6.78;;;21.90;99.90;;;;;;5065393;28;20056;-66
2022/08/09 07:02:27;;;;;;;8.77;6.55;;;22.10;99.90;;;;;;5073469;28;20050;-65
2022/08/09 07:04:58;;;;;;;7.30;6.70;;;22.10;99.90;;;;;;5054150;28;20074;-65
2022/08/09 07:07:26;;;;;;;7.75;6.97;;;22.10;99.90;;;;;;5065019;28;20542;-65
2022/08/09 07:10:14;;;;;;;7.03;6.45;;;22.10;99.90;;;;;;5060352;28;20298;-65
2022/08/09 07:12:57;;;;;;;7.32;6.57;;;22.20;99.90;;;;;;5064712;28;20043;-65
2022/08/09 07:15:26;;;;;;;7.03;6.32;;;22.30;99.90;;;;;;5052094;28;20052;-65
2022/08/09 07:18:13;;;;;;;7.00;6.30;;;22.40;99.90;;;;;;5051377;28;20617;-65
2022/08/09 07:20:41;;;;;;;6.35;5.82;;;22.50;99.90;;;;;;5060318;28;20143;-62
2022/08/09 07:23:11;;;;;;;9.15;5.95;;;22.60;99.80;;;;;;5064115;28;20040;-62
2022/08/09 07:25:48;;;;;;;6.60;6.00;;;22.70;99.70;;;;;;5071184;28;20139;-61
2022/08/09 07:28:27;;;;;;;7.10;5.88;;;22.80;99.40;;;;;;5063171;28;20356;-60
2022/08/09 07:30:55;;;;;;;7.10;6.50;;;22.80;99.10;;;;;;5069098;28;20098;-64
2022/08/09 07:33:22;;;;;;;7.18;6.68;;;23.00;98.80;;;;;;5072364;28;20038;-65
2022/08/09 07:35:49;;;;;;;7.88;6.70;;;23.00;98.70;;;;;;5069695;28;20451;-63
2022/08/09 07:38:21;;;;;;;7.28;6.50;;;23.20;98.30;;;;;;5057880;28;20037;-62
2022/08/09 07:40:50;;;;;;;7.30;6.70;;;23.30;97.60;;;;;;5069001;28;20410;-63
2022/08/09 07:43:38;;;;;;;7.07;6.10;;;23.40;97.50;;;;;;5065581;28;20212;-62
2022/08/09 07:46:22;;;;;;;7.30;6.50;;;23.50;97.30;;;;;;5071072;28;20411;-62
2022/08/09 07:48:54;;;;;;;7.65;6.95;;;23.60;96.80;;;;;;5074094;28;20040;-66
2022/08/09 07:51:27;;;;;;;7.15;6.55;;;23.80;95.90;;;;;;5079793;28;20804;-63
2022/08/09 07:54:15;;;;;;;7.13;5.82;;;23.90;95.00;;;;;;5057957;28;20033;-62
2022/08/09 07:56:56;;;;;;;6.20;5.70;;;23.90;95.00;;;;;;5073171;28;20148;-62
2022/08/09 07:59:24;;;;;;;6.85;6.22;;;24.10;94.40;;;;;;5068490;28;20032;-63
2022/08/09 08:02:12;;;;;;;10.00;6.03;;;24.20;93.90;;;;;;5080135;28;20659;-62
2022/08/09 08:04:46;;;;;;;6.72;6.13;;;24.20;93.70;;;;;;5064523;28;20368;-61
2022/08/09 08:07:15;;;;;;;6.60;6.10;;;24.30;93.50;;;;;;5061602;28;20061;-62
2022/08/09 08:10:05;;;;;;;7.95;5.90;;;24.40;93.40;;;;;;5062501;28;20048;-62
2022/08/09 08:12:39;;;;;;;6.82;6.22;;;24.50;92.70;;;;;;5080787;28;20495;-63
2022/08/09 08:15:13;;;;;;;6.47;5.95;;;24.60;92.30;;;;;;5065161;28;20048;-63
2022/08/09 08:17:45;;;;;;;7.90;5.93;;;24.70;91.70;;;;;;5065392;28;20050;-62
2022/08/09 08:20:24;;;;;;;7.88;5.80;;;24.70;91.50;;;;;;5070040;28;20053;-63
2022/08/09 08:23:01;;;;;;;6.43;5.82;;;24.80;90.90;;;;;;5056809;28;20463;-62
2022/08/09 08:25:47;;;;;;;9.25;6.38;;;24.90;90.80;;;;;;5068838;28;20377;-62
2022/08/09 08:28:20;;;;;;;6.50;6.00;;;24.90;90.50;;;;;;5067612;28;20052;-62
2022/08/09 08:31:00;;;;;;;6.55;5.95;;;24.90;90.40;;;;;;5062544;28;20040;-62
2022/08/09 08:33:40;;;;;;;;;;;25.00;90.00;;;;;;5074230;28;20050;-62
2022/08/09 08:36:23;;;;;;;6.30;5.80;;;25.20;89.30;;;;;;5061387;28;19951;-64
2022/08/09 08:38:58;;;;;;;6.57;5.95;;;25.30;89.40;;;;;;5056786;28;20044;-62
2022/08/09 08:41:26;;;;;;;8.30;5.85;;;25.30;88.70;;;;;;5069995;28;20491;-63
2022/08/09 08:44:14;;;;;;;7.25;6.53;;;25.30;88.00;;;;;;5050002;28;20171;-62
2022/08/09 08:46:50;;;;;;;7.38;6.70;;;25.40;87.90;;;;;;5069829;28;20084;-62
2022/08/09 08:49:32;;;;;;;7.88;6.72;;;25.50;86.00;;;;;;5063002;28;20538;-66
2022/08/09 08:52:20;;;;;;;7.32;6.22;;;25.60;84.60;;;;;;5076672;28;20051;-63
2022/08/09 08:55:08;;;;;;;7.03;6.43;;;25.70;84.50;;;;;;5064603;28;20036;-61
2022/08/09 08:57:36;;;;;;;8.88;6.45;;;25.70;84.30;;;;;;5081950;28;20036;-61
2022/08/09 09:00:07;;;;;;;7.28;6.68;;;25.70;84.00;;;;;;5069803;28;20487;-60
2022/08/09 09:02:49;;;;;;;7.47;6.78;;;25.90;82.30;;;;;;5066743;28;20051;-61
2022/08/09 09:05:23;;;;;;;7.18;6.47;;;25.90;83.20;;;;;;5060941;28;20093;-61
2022/08/09 09:08:13;;;;;;;6.72;6.03;;;26.00;82.50;;;;;;5085409;28;20510;-64
2022/08/09 09:11:02;;;;;;;9.93;6.93;;;26.00;82.50;;;;;;5082445;28;20165;-62
2022/08/09 09:13:35;;;;;;;7.45;6.65;;;26.00;82.70;;;;;;5084026;28;20048;-63
2022/08/09 09:16:23;;;;;;;7.43;6.72;;;26.10;81.50;;;;;;5051160;28;20123;-61
2022/08/09 09:19:08;;;;;;;6.93;5.90;;;26.10;80.30;;;;;;5063754;28;20053;-61
2022/08/09 09:21:57;;;;;;;7.20;6.70;;;26.20;80.40;;;;;;5076889;28;20050;-62
2022/08/09 09:24:41;;;;;;;7.00;6.30;;;26.30;79.80;;;;;;5054347;28;20036;-67
2022/08/09 09:27:13;;;;;;;6.78;6.13;;;26.30;79.20;;;;;;5069236;28;20044;-62
2022/08/09 09:30:10;;;;;;;8.90;6.38;;;26.40;79.60;;;;;;5055334;28;20043;-62
2022/08/09 09:33:02;;;;;;;7.05;6.30;;;26.40;77.60;;;;;;5059444;28;20132;-62
2022/08/09 09:35:58;;;;;;;6.68;6.00;;;26.50;78.50;;;;;;5063360;28;20044;-63
2022/08/09 09:38:45;;;;;;;6.68;6.05;;;26.50;77.50;;;;;;5076200;28;20060;-62
2022/08/09 09:41:27;;;;;;;7.38;6.18;;;26.60;78.10;;;;;;5077177;28;20112;-61
2022/08/09 09:44:31;;;;;;;7.90;6.43;;;26.60;77.90;;;;;;5076763;28;20044;-62
2022/08/09 09:47:10;;;;;;;11.45;6.47;;;26.80;78.00;;;;;;5078575;28;20470;-66
2022/08/09 09:49:38;;;;;;;6.93;6.25;;;26.90;79.10;;;;;;5070795;28;20613;-63
2022/08/09 09:52:26;;;;;;;8.38;6.88;;;27.00;77.70;;;;;;5069312;28;20055;-63
2022/08/09 09:55:08;;;;;;;7.80;6.47;;;27.10;77.10;;;;;;5063445;28;20056;-63
2022/08/09 09:57:57;;;;;;;6.95;6.10;;;27.20;76.40;;;;;;5064271;28;20040;-63
2022/08/09 10:00:30;;;;;;;8.38;6.45;;;27.40;76.10;;;;;;5072450;28;20068;-62
2022/08/09 10:02:59;;;;;;;7.97;6.95;;;27.60;75.80;;;;;;5065798;28;20145;-64
2022/08/09 10:05:56;;;;;;;9.25;6.43;;;27.60;75.20;;;;;;5051665;28;20037;-63
2022/08/09 10:08:30;;;;;;;7.60;6.88;;;27.70;75.10;;;;;;5051765;28;20522;-62
2022/08/09 10:11:17;;;;;;;7.38;6.68;;;27.70;74.50;;;;;;5071547;28;20471;-62
2022/08/09 10:14:04;;;;;;;9.25;6.15;;;27.80;73.40;;;;;;5066422;28;20413;-62
2022/08/09 10:16:34;;;;;;;7.10;6.40;;;27.90;73.50;;;;;;5059518;28;20052;-63
2022/08/09 10:19:34;;;;;;;7.35;6.65;;;28.10;72.90;;;;;;5065096;28;20402;-63
2022/08/09 10:22:02;;;;;;;7.68;6.20;;;28.20;73.20;;;;;;5057543;28;20049;-63
2022/08/09 10:24:30;;;;;;;8.55;6.60;;;28.10;73.00;;;;;;5072080;28;20045;-63
2022/08/09 10:27:02;;;;;;;6.68;6.18;;;28.20;72.80;;;;;;5061134;28;20053;-61
2022/08/09 10:29:44;;;;;;;7.20;6.50;;;28.40;72.00;;;;;;5067548;28;20045;-60
2022/08/09 10:32:33;;;;;;;7.55;6.35;;;28.50;71.50;;;;;;5065521;28;20040;-61
2022/08/09 10:35:09;;;;;;;7.38;6.68;;;28.60;71.40;;;;;;5058910;28;20044;-61
2022/08/09 10:37:39;;;;;;;6.80;6.20;;;28.80;70.60;;;;;;5074523;28;20071;-63
2022/08/09 10:40:10;;;;;;;7.30;6.60;;;28.70;70.60;;;;;;5078597;28;20485;-63
2022/08/09 10:42:57;;;;;;;7.60;7.00;;;28.90;70.00;;;;;;5079128;28;20048;-63
2022/08/09 10:45:29;;;;;;;9.93;6.25;;;29.00;69.60;;;;;;5082598;28;20544;-63
2022/08/09 10:48:37;;;;;;;7.65;6.95;;;29.20;69.00;;;;;;5069247;28;20052;-67
2022/08/09 10:51:13;;;;;;;7.53;6.15;;;29.30;69.20;;;;;;5050911;28;20507;-63
2022/08/09 10:53:53;;;;;;;8.02;6.43;;;29.30;68.50;;;;;;5076544;28;20041;-65
2022/08/09 10:56:23;;;;;;;6.80;6.20;;;29.50;68.50;;;;;;5085986;28;20048;-63
2022/08/09 10:58:53;;;;;;;6.68;6.07;;;29.70;67.50;;;;;;5067612;28;20059;-66
2022/08/09 11:01:34;;;;;;;6.88;6.18;;;30.10;67.80;;;;;;5067304;28;20418;-63
2022/08/09 11:04:24;;;;;;;7.28;6.65;;;30.20;66.70;;;;;;5059610;28;20052;-63
2022/08/09 11:06:57;;;;;;;7.18;6.57;;;30.50;65.60;;;;;;5055090;28;20111;-63
2022/08/09 11:09:41;;;;;;;6.90;6.30;;;30.50;64.90;;;;;;5061021;28;20499;-62
2022/08/09 11:12:22;;;;;;;7.03;6.32;;;30.40;65.50;;;;;;5061808;28;20053;-64
2022/08/09 11:15:01;;;;;;;7.95;6.47;;;30.50;65.30;;;;;;5050841;28;20044;-63
2022/08/09 11:17:31;;;;;;;7.03;6.30;;;30.70;65.30;;;;;;5066486;28;20466;-65
2022/08/09 11:20:03;;;;;;;6.78;6.00;;;31.10;63.80;;;;;;5059310;28;20098;-65
2022/08/09 11:22:50;;;;;;;7.07;6.47;;;31.00;63.10;;;;;;5067308;28;20402;-65
2022/08/09 11:25:30;;;;;;;7.00;6.40;;;31.10;62.50;;;;;;5076541;28;20060;-64
2022/08/09 11:28:35;;;;;;;6.38;5.80;;;31.20;62.50;;;;;;5073996;28;20495;-65
2022/08/09 11:31:40;;;;;;;6.97;6.28;;;31.30;61.40;;;;;;5086449;28;20051;-64
2022/08/09 11:34:19;;;;;;;6.80;6.25;;;31.40;60.40;;;;;;5068011;28;20426;-65
2022/08/09 11:36:47;;;;;;;9.18;5.68;;;31.60;59.80;;;;;;5052335;28;20131;-65
2022/08/09 11:39:15;;;;;;;7.70;6.38;;;31.80;59.60;;;;;;5058596;28;20560;-67
2022/08/09 11:41:43;;;;;;;6.97;6.40;;;32.20;59.20;;;;;;5067522;28;20052;-65
2022/08/09 11:44:11;;;;;;;8.23;6.15;;;32.40;58.90;;;;;;5067615;28;20064;-64
2022/08/09 11:46:51;;;;;;;7.38;6.53;;;32.40;58.80;;;;;;5062817;28;20057;-65
2022/08/09 11:49:19;;;;;;;6.82;6.20;;;32.90;58.50;;;;;;5068438;28;20141;-65
2022/08/09 11:52:02;;;;;;;6.78;6.20;;;33.20;57.50;;;;;;5080957;28;20341;-66
2022/08/09 11:55:26;;;;;;;6.80;6.30;;;33.30;57.50;;;;;;5072961;28;20410;-66
2022/08/09 11:58:13;;;;;;;6.68;6.00;;;33.80;57.00;;;;;;5082813;28;20048;-65
2022/08/09 12:00:56;;;;;;;6.47;5.88;;;33.60;56.60;;;;;;5056028;28;20415;-65
2022/08/09 12:03:25;;;;;;;7.85;5.80;;;33.50;57.30;;;;;;5069786;28;20113;-65
2022/08/09 12:06:16;;;;;;;8.10;5.88;;;33.80;56.20;;;;;;5058391;28;20098;-64
2022/08/09 12:08:55;;;;;;;7.32;5.28;;;34.30;55.80;;;;;;5067092;28;20461;-67
2022/08/09 12:11:25;;;;;;;6.22;5.60;;;34.70;55.00;;;;;;5068941;28;20076;-66
2022/08/09 12:13:59;;;;;;;8.70;6.00;;;34.50;54.50;;;;;;5063933;28;20049;-67
2022/08/09 12:16:40;;;;;;;7.13;6.50;;;34.20;54.60;;;;;;5086752;28;20029;-66
2022/08/09 12:19:11;;;;;;;6.60;6.00;;;34.60;54.40;;;;;;5061154;28;20109;-65
2022/08/09 12:21:47;;;;;;;6.80;6.20;;;35.00;54.10;;;;;;5075908;28;20052;-64
2022/08/09 12:24:22;;;;;;;7.53;6.72;;;35.60;53.60;;;;;;5062213;28;20045;-65
2022/08/09 12:26:55;;;;;;;6.45;5.95;;;36.10;52.80;;;;;;5084740;28;20044;-65
2022/08/09 12:29:55;;;;;;;6.75;6.13;;;36.40;52.80;;;;;;5076996;28;20421;-64
2022/08/09 12:32:42;;;;;;;7.03;6.32;;;36.50;52.10;;;;;;5070517;28;20029;-65
2022/08/09 12:35:10;;;;;;;6.85;6.20;;;36.60;51.90;;;;;;5074746;28;20141;-66
2022/08/09 12:37:45;;;;;;;6.70;6.03;;;36.90;51.50;;;;;;5060024;28;20407;-65
2022/08/09 12:40:21;;;;;;;6.32;5.70;;;36.20;51.40;;;;;;5065210;28;20044;-64
2022/08/09 12:42:52;;;;;;;10.68;6.47;;;36.70;51.00;;;;;;5059686;28;20040;-67
2022/08/09 12:45:20;;;;;;;6.07;5.57;;;37.20;50.60;;;;;;5068461;28;20079;-64
2022/08/09 12:48:09;;;;;;;7.57;6.10;;;37.40;49.50;;;;;;5077763;28;20395;-64
2022/08/09 12:50:58;;;;;;;6.38;5.88;;;37.20;49.50;;;;;;5050262;28;20048;-65
2022/08/09 12:53:29;;;;;;;8.13;6.60;;;37.30;49.70;;;;;;5075120;28;20165;-64
2022/08/09 12:56:15;;;;;;;6.78;5.97;;;37.70;49.10;;;;;;5086377;28;20040;-65
2022/08/09 12:59:10;;;;;;;6.80;6.10;;;37.40;49.10;;;;;;5075817;28;20151;-64
2022/08/09 13:01:44;;;;;;;8.38;5.80;;;37.50;48.70;;;;;;5058385;28;20055;-65
2022/08/09 13:04:17;;;;;;;6.03;5.45;;;37.90;48.00;;;;;;5068757;28;20045;-65
2022/08/09 13:07:15;;;;;;;6.50;5.90;;;38.20;47.90;;;;;;5072389;28;20410;-65
2022/08/09 13:09:46;;;;;;;6.55;5.93;;;38.00;47.70;;;;;;5079764;28;20517;-65
2022/08/09 13:12:26;;;;;;;6.40;5.80;;;38.00;47.80;;;;;;5064798;28;20046;-65
2022/08/09 13:15:05;;;;;;;6.80;6.20;;;38.50;47.40;;;;;;5059097;28;20048;-65
2022/08/09 13:17:34;;;;;;;9.23;6.15;;;38.80;47.50;;;;;;5056099;28;20066;-65
2022/08/09 13:20:34;;;;;;;7.00;6.30;;;39.20;46.90;;;;;;5064424;28;20060;-64
2022/08/09 13:23:17;;;;;;;6.82;5.82;;;39.10;46.60;;;;;;5065736;28;20496;-64
2022/08/09 13:26:05;;;;;;;6.30;5.80;;;39.80;46.20;;;;;;5071482;28;20047;-65
2022/08/09 13:28:36;;;;;;;7.53;5.55;;;39.70;45.80;;;;;;5056071;28;20050;-65
2022/08/09 13:31:09;;;;;;;6.90;6.13;;;40.20;45.70;;;;;;5080495;28;20052;-65
2022/08/09 13:33:57;;;;;;;6.15;5.65;;;40.30;45.20;;;;;;5054142;28;20483;-65
2022/08/09 13:36:25;;;;;;;6.30;5.68;;;40.70;44.60;;;;;;5053247;28;20511;-65
2022/08/09 13:39:13;;;;;;;6.53;5.72;;;41.30;44.20;;;;;;5049481;28;20394;-65
2022/08/09 13:42:14;;;;;;;7.82;5.40;;;42.00;43.60;;;;;;5058272;28;20054;-65
2022/08/09 13:44:44;;;;;;;6.55;5.95;;;41.80;43.00;;;;;;5048442;28;20049;-65